CYIK

Ivujivik Airport

Ivujivik, Quebec, Canada
TAF CYIK 251338Z 2514/2521 16012KT P6SM SCT015 BKN160 TEMPO 2514/2521 BKN015 BKN160 BECMG 2519/2521 04010KT RMK NXT FCST WILL BE ISSUED AT 261345Z
Issued Valid From Valid To
Sep-25 @ 13:38 UTC
(2 hours ago)
Sep-25 @ 14:00 UTC
(an hour ago)
Sep-25 @ 21:00 UTC
(in 6 hours)
Sep-25 @ 14:00 to Sep-25 @ 19:00
TAF CYIK 251338Z 2514/2521 16012KT P6SM SCT015 BKN160
Wind Visibility Clouds
160° at 12 knots Greater than 6 miles
  • Scattered at 1,500' AGL
  • Broken at 16,000' AGL
Temporary Sep-25 @ 14:00 to Sep-25 @ 21:00
TEMPO 2514/2521 BKN015 BKN160
Clouds
  • Broken at 1,500' AGL
  • Broken at 16,000' AGL
Becoming Sep-25 @ 19:00 to Sep-25 @ 21:00
BECMG 2519/2521 04010KT RMK NXT FCST WILL BE ISSUED AT 261345Z
Wind Visibility Clouds
40° at 10 knots Greater than 6 miles
  • Scattered at 1,500' AGL
  • Broken at 16,000' AGL
TAF CYIK 251338Z 2514/2521 16012KT P6SM SCT015 BKN160 TEMPO 2514/2521 BKN015 BKN160 BECMG 2519/2521 04010KT RMK NXT FCST WILL BE ISSUED AT 261345Z
Issued Sep-25 @ 13:38 UTC
(2 hours ago)
Valid From Sep-25 @ 14:00 UTC
(an hour ago)
Valid To Sep-25 @ 21:00 UTC
(in 6 hours)
Sep-25 @ 14:00 - Sep-25 @ 19:00
Wind Visibility
160° at 12 knots Greater than 6 miles
Clouds
  • Scattered at 1,500' AGL
  • Broken at 16,000' AGL
Temporary Sep-25 @ 14:00 - Sep-25 @ 21:00
Clouds
  • Broken at 1,500' AGL
  • Broken at 16,000' AGL
Becoming Sep-25 @ 19:00 - Sep-25 @ 21:00
Wind Visibility
40° at 10 knots Greater than 6 miles
Clouds
  • Scattered at 1,500' AGL
  • Broken at 16,000' AGL